Time;durP1;ratioP1;P1;durP2;ratioP2;P2;SDS_P1;SDS_P2;PMS_P1;PMS_P2;Temp;Humidity;BMP_temperature;BMP_pressure;BME280_temperature;BME280_humidity;BME280_pressure;Samples;Min_cycle;Max_cycle;Signal;HPM_P1;HPM_P2
2021/12/10 00:01:00;;;;;;;8.53;4.43;;;;;;;;;;5098416;28;20439;-65
2021/12/10 00:03:32;;;;;;;7.70;5.20;;;;;;;;;;5097857;28;20812;-65
2021/12/10 00:06:01;;;;;;;7.93;4.27;;;;;;;;;;5098154;28;20996;-65
2021/12/10 00:08:31;;;;;;;11.37;5.37;;;;;;;;;;5098331;28;20471;-65
2021/12/10 00:11:02;;;;;;;8.97;4.90;;;;;;;;;;5097856;28;20543;-65
2021/12/10 00:13:30;;;;;;;9.83;4.90;;;;;;;;;;5098101;28;20443;-65
2021/12/10 00:15:58;;;;;;;8.07;4.70;;;;;;;;;;5097725;28;20487;-65
2021/12/10 00:18:33;;;;;;;6.33;4.93;;;;;;;;;;5097876;28;20485;-65
2021/12/10 00:21:01;;;;;;;8.97;4.30;;;;;;;;;;5097919;28;20444;-65
2021/12/10 00:23:30;;;;;;;7.70;5.07;;;;;;;;;;5098296;28;20444;-65
2021/12/10 00:26:01;;;;;;;8.00;4.27;;;;;;;;;;5097826;28;20953;-65
2021/12/10 00:28:31;;;;;;;5.23;4.10;;;;;;;;;;5097288;28;20958;-65
2021/12/10 00:31:15;;;;;;;7.93;4.43;;;;;;;;;;5077736;28;20443;-65
2021/12/10 00:33:51;;;;;;;8.10;4.70;;;;;;;;;;5077221;28;20455;-65
2021/12/10 00:36:19;;;;;;;6.47;3.90;;;;;;;;;;5077276;28;20541;-65
2021/12/10 00:38:47;;;;;;;8.97;4.13;;;;;;;;;;5078796;28;20467;-65
2021/12/10 00:41:17;;;;;;;7.60;4.23;;;;;;;;;;5077630;28;20455;-65
2021/12/10 00:43:45;;;;;;;9.57;4.70;;;;;;;;;;5077590;28;20531;-65
2021/12/10 00:46:13;;;;;;;6.20;4.40;;;;;;;;;;5077699;28;20451;-65
2021/12/10 00:48:42;;;;;;;6.07;3.70;;;;;;;;;;5088409;28;20535;-65
2021/12/10 00:51:11;;;;;;;7.13;3.80;;;;;;;;;;5097539;28;20448;-65
2021/12/10 00:53:39;;;;;;;4.63;3.70;;;;;;;;;;5097576;28;20470;-65
2021/12/10 00:56:07;;;;;;;4.37;2.97;;;;;;;;;;5097646;28;20553;-65
2021/12/10 00:58:37;;;;;;;6.00;3.83;;;;;;;;;;5097623;28;20828;-65
2021/12/10 01:01:07;;;;;;;6.97;3.83;;;;;;;;;;5097645;28;20474;-65
2021/12/10 01:03:37;;;;;;;6.53;3.53;;;;;;;;;;5097422;28;20440;-65
2021/12/10 01:06:07;;;;;;;6.13;3.53;;;;;;;;;;5101684;28;20475;-65
2021/12/10 01:08:35;;;;;;;3.83;3.43;;;;;;;;;;5101803;28;20502;-65
2021/12/10 01:11:10;;;;;;;6.50;3.33;;;;;;;;;;5101760;28;20471;-65
2021/12/10 01:13:42;;;;;;;4.17;3.13;;;;;;;;;;5101250;28;20439;-65
2021/12/10 01:23:41;;;;;;;3.80;3.40;;;;;;;;;;5101243;28;20853;-65
2021/12/10 01:24:51;;;;;;;6.33;3.50;;;;;;;;;;5101286;28;20813;-65
2021/12/10 01:27:28;;;;;;;4.27;3.37;;;;;;;;;;5101041;28;20447;-65
2021/12/10 01:29:58;;;;;;;5.43;3.43;;;;;;;;;;5089539;28;20460;-65
2021/12/10 01:32:28;;;;;;;8.77;3.43;;;;;;;;;;5081145;28;20444;-65
2021/12/10 01:34:56;;;;;;;5.10;3.47;;;;;;;;;;5080350;28;20816;-65
2021/12/10 01:37:25;;;;;;;5.23;3.10;;;;;;;;;;5080510;28;20510;-65
2021/12/10 01:39:55;;;;;;;4.97;3.07;;;;;;;;;;5082221;28;20474;-65
2021/12/10 01:42:36;;;;;;;5.77;2.97;;;;;;;;;;5088142;28;20450;-65
2021/12/10 01:45:11;;;;;;;7.17;3.27;;;;;;;;;;5100922;28;20443;-65
2021/12/10 01:47:39;;;;;;;5.33;3.13;;;;;;;;;;5100723;28;21161;-65
2021/12/10 01:50:07;;;;;;;10.23;3.53;;;;;;;;;;5100631;28;20469;-65
2021/12/10 01:52:35;;;;;;;6.50;4.03;;;;;;;;;;5100786;28;21002;-65
2021/12/10 01:55:05;;;;;;;7.70;3.90;;;;;;;;;;5100699;28;20447;-65
2021/12/10 01:57:34;;;;;;;5.27;3.73;;;;;;;;;;5100786;28;20440;-65
2021/12/10 02:00:04;;;;;;;6.00;3.60;;;;;;;;;;5100609;28;21044;-65
2021/12/10 02:02:35;;;;;;;4.80;3.03;;;;;;;;;;5100466;28;20972;-65
2021/12/10 02:05:05;;;;;;;6.77;3.63;;;;;;;;;;5100702;28;20451;-65
2021/12/10 02:07:33;;;;;;;7.40;3.00;;;;;;;;;;5100273;28;20513;-65
2021/12/10 02:10:01;;;;;;;6.03;2.97;;;;;;;;;;5100464;28;20467;-65
2021/12/10 02:12:29;;;;;;;5.57;2.97;;;;;;;;;;5100426;28;20475;-65
2021/12/10 02:15:02;;;;;;;4.83;3.00;;;;;;;;;;5100472;28;20443;-65
2021/12/10 02:17:31;;;;;;;5.07;3.00;;;;;;;;;;5099717;28;20448;-65
2021/12/10 02:20:04;;;;;;;7.37;2.80;;;;;;;;;;5099954;28;20463;-65
2021/12/10 02:22:33;;;;;;;3.30;2.60;;;;;;;;;;5100151;28;20450;-65
2021/12/10 02:25:02;;;;;;;7.20;3.13;;;;;;;;;;5100206;28;20450;-65
2021/12/10 02:27:30;;;;;;;4.30;2.70;;;;;;;;;;5100061;28;20444;-65
2021/12/10 02:29:58;;;;;;;3.13;2.80;;;;;;;;;;5087740;28;20890;-65
2021/12/10 02:32:26;;;;;;;4.30;2.97;;;;;;;;;;5079798;28;20932;-65
2021/12/10 02:34:55;;;;;;;4.90;3.33;;;;;;;;;;5079637;28;20433;-65
2021/12/10 02:37:23;;;;;;;6.17;3.33;;;;;;;;;;5079422;28;20491;-65
2021/12/10 02:39:52;;;;;;;5.10;3.30;;;;;;;;;;5080796;28;20471;-65
2021/12/10 02:42:20;;;;;;;4.97;3.50;;;;;;;;;;5079397;28;20947;-65
2021/12/10 02:44:48;;;;;;;3.63;2.87;;;;;;;;;;5079433;28;20531;-65
2021/12/10 02:47:20;;;;;;;6.87;3.27;;;;;;;;;;5079389;28;20445;-65
2021/12/10 02:49:48;;;;;;;3.37;3.07;;;;;;;;;;5094587;28;20498;-65
2021/12/10 02:52:16;;;;;;;5.83;2.73;;;;;;;;;;5099411;28;20447;-65
2021/12/10 02:54:44;;;;;;;2.33;2.10;;;;;;;;;;5099752;28;20526;-65
2021/12/10 02:57:15;;;;;;;3.17;2.77;;;;;;;;;;5099533;28;20479;-65
2021/12/10 02:59:43;;;;;;;2.93;2.43;;;;;;;;;;5099612;28;20470;-65
2021/12/10 03:02:13;;;;;;;2.00;1.80;;;;;;;;;;5099536;28;20444;-65
2021/12/10 03:04:41;;;;;;;1.67;1.57;;;;;;;;;;5099298;28;20527;-65
2021/12/10 03:07:15;;;;;;;2.03;1.70;;;;;;;;;;5099867;28;20439;-65
2021/12/10 03:09:44;;;;;;;2.73;1.23;;;;;;;;;;5099243;28;20829;-65
2021/12/10 03:12:14;;;;;;;1.97;1.37;;;;;;;;;;5098982;28;20489;-65
2021/12/10 03:14:45;;;;;;;1.10;1.10;;;;;;;;;;5099342;28;20446;-65
2021/12/10 03:17:14;;;;;;;1.33;1.23;;;;;;;;;;5098978;28;20562;-65
2021/12/10 03:19:42;;;;;;;1.33;1.23;;;;;;;;;;5098794;28;20463;-65
2021/12/10 03:22:10;;;;;;;1.60;1.50;;;;;;;;;;5099252;28;20452;-66
2021/12/10 03:24:38;;;;;;;1.47;1.47;;;;;;;;;;5099430;28;20530;-66
2021/12/10 03:27:10;;;;;;;1.43;1.40;;;;;;;;;;5098998;28;20480;-66
2021/12/10 03:29:42;;;;;;;1.20;1.10;;;;;;;;;;5089650;28;20823;-65
2021/12/10 03:32:13;;;;;;;0.80;0.80;;;;;;;;;;5078495;28;20456;-65
2021/12/10 03:34:41;;;;;;;1.20;1.10;;;;;;;;;;5078660;28;20449;-65
2021/12/10 03:37:10;;;;;;;1.13;1.13;;;;;;;;;;5078446;28;20490;-65
2021/12/10 03:39:38;;;;;;;1.20;1.10;;;;;;;;;;5080685;28;20471;-65
2021/12/10 03:42:06;;;;;;;2.20;1.23;;;;;;;;;;5078141;28;20988;-65
2021/12/10 03:44:36;;;;;;;1.20;0.90;;;;;;;;;;5078453;28;20451;-65
2021/12/10 03:47:05;;;;;;;0.80;0.80;;;;;;;;;;5078588;28;20440;-65
2021/12/10 03:49:35;;;;;;;0.80;0.80;;;;;;;;;;5096891;28;20985;-65
2021/12/10 03:52:04;;;;;;;2.43;0.90;;;;;;;;;;5098280;28;20938;-65
2021/12/10 03:54:32;;;;;;;0.57;0.57;;;;;;;;;;5088863;28;20440;-65
2021/12/10 03:57:01;;;;;;;0.67;0.67;;;;;;;;;;5087846;28;20979;-65
2021/12/10 03:59:30;;;;;;;1.10;1.00;;;;;;;;;;5089515;28;20464;-65
2021/12/10 04:01:58;;;;;;;1.80;1.30;;;;;;;;;;5089431;28;20433;-65
2021/12/10 04:04:28;;;;;;;1.90;1.33;;;;;;;;;;5085452;28;20465;-65
2021/12/10 04:06:58;;;;;;;1.37;1.27;;;;;;;;;;5086910;28;20432;-65
2021/12/10 04:09:26;;;;;;;2.10;0.90;;;;;;;;;;5095054;28;20463;-65
2021/12/10 04:11:55;;;;;;;0.67;0.60;;;;;;;;;;5098400;28;20443;-65
2021/12/10 04:14:24;;;;;;;0.73;0.73;;;;;;;;;;5097890;28;20952;-65
2021/12/10 04:16:56;;;;;;;0.63;0.60;;;;;;;;;;5097889;28;20479;-65
2021/12/10 04:19:25;;;;;;;0.70;0.70;;;;;;;;;;5097873;28;20466;-65
2021/12/10 04:21:56;;;;;;;0.83;0.80;;;;;;;;;;5092583;28;20950;-65
2021/12/10 04:24:27;;;;;;;1.90;0.70;;;;;;;;;;5089366;28;20452;-65
2021/12/10 04:26:56;;;;;;;0.80;0.80;;;;;;;;;;5089442;28;20447;-65
2021/12/10 04:29:24;;;;;;;0.60;0.60;;;;;;;;;;5087117;28;20512;-65
2021/12/10 04:31:53;;;;;;;0.90;0.90;;;;;;;;;;5088896;28;20444;-65
2021/12/10 04:34:22;;;;;;;0.50;0.50;;;;;;;;;;5082826;28;20443;-65
2021/12/10 04:36:51;;;;;;;0.70;0.70;;;;;;;;;;5077282;28;20490;-65
2021/12/10 04:39:19;;;;;;;1.00;1.00;;;;;;;;;;5079655;28;20465;-65
2021/12/10 04:41:49;;;;;;;0.80;0.80;;;;;;;;;;5077550;28;20454;-65
2021/12/10 04:44:17;;;;;;;1.83;0.90;;;;;;;;;;5077401;28;20447;-64
2021/12/10 04:46:45;;;;;;;1.17;1.17;;;;;;;;;;5077654;28;20440;-65
2021/12/10 04:49:14;;;;;;;2.00;0.90;;;;;;;;;;5093089;28;20459;-65
2021/12/10 04:51:43;;;;;;;0.70;0.70;;;;;;;;;;5080998;28;20448;-65
2021/12/10 04:54:12;;;;;;;1.00;1.00;;;;;;;;;;5076682;28;20445;-65
2021/12/10 04:56:40;;;;;;;1.23;0.80;;;;;;;;;;5076439;28;20787;-65
2021/12/10 04:59:13;;;;;;;0.87;0.87;;;;;;;;;;5077180;28;21030;-65
2021/12/10 05:01:41;;;;;;;1.10;0.73;;;;;;;;;;5077543;28;20451;-65
2021/12/10 05:04:11;;;;;;;0.50;0.50;;;;;;;;;;5076990;28;20452;-65
2021/12/10 05:06:39;;;;;;;0.70;0.70;;;;;;;;;;5077469;28;20531;-65
2021/12/10 05:09:08;;;;;;;0.70;0.70;;;;;;;;;;5077251;28;20465;-65
2021/12/10 05:11:36;;;;;;;0.87;0.87;;;;;;;;;;5077202;28;20449;-65
2021/12/10 05:14:05;;;;;;;1.50;0.60;;;;;;;;;;5077126;28;20471;-65
2021/12/10 05:16:38;;;;;;;0.40;0.40;;;;;;;;;;5077381;28;20927;-65
2021/12/10 05:19:06;;;;;;;2.23;0.70;;;;;;;;;;5077090;28;20466;-65
2021/12/10 05:21:35;;;;;;;1.60;0.73;;;;;;;;;;5077342;28;20448;-65
2021/12/10 05:24:04;;;;;;;0.53;0.53;;;;;;;;;;5077311;28;20444;-65
2021/12/10 05:26:32;;;;;;;1.20;1.10;;;;;;;;;;5077374;28;20440;-65
2021/12/10 05:29:00;;;;;;;0.60;0.60;;;;;;;;;;5081480;28;20457;-65
2021/12/10 05:31:28;;;;;;;0.80;0.80;;;;;;;;;;5077113;28;20444;-65
2021/12/10 05:33:58;;;;;;;0.70;0.70;;;;;;;;;;5076745;28;20517;-65
2021/12/10 05:36:27;;;;;;;0.80;0.80;;;;;;;;;;5076802;28;20480;-66
2021/12/10 05:38:55;;;;;;;2.13;0.70;;;;;;;;;;5078269;28;20854;-69
2021/12/10 05:41:23;;;;;;;0.60;0.60;;;;;;;;;;5086064;28;20943;-66
2021/12/10 05:43:51;;;;;;;0.87;0.87;;;;;;;;;;5089354;28;20444;-66
2021/12/10 05:46:19;;;;;;;0.87;0.87;;;;;;;;;;5085746;28;20860;-66
2021/12/10 05:48:47;;;;;;;0.67;0.67;;;;;;;;;;5087547;28;20464;-66
2021/12/10 05:51:17;;;;;;;0.67;0.60;;;;;;;;;;5077226;28;20506;-66
2021/12/10 05:53:45;;;;;;;1.27;0.80;;;;;;;;;;5080802;28;20532;-66
2021/12/10 05:56:13;;;;;;;0.97;0.70;;;;;;;;;;5080655;28;20446;-66
2021/12/10 05:58:41;;;;;;;2.10;0.70;;;;;;;;;;5080486;28;20488;-66
2021/12/10 06:01:15;;;;;;;1.03;0.60;;;;;;;;;;5080401;28;20448;-66
2021/12/10 06:03:51;;;;;;;1.80;0.73;;;;;;;;;;5079963;28;20883;-66
2021/12/10 06:06:22;;;;;;;2.40;0.73;;;;;;;;;;5080118;28;20519;-66
2021/12/10 06:08:50;;;;;;;0.90;0.90;;;;;;;;;;5080338;28;20470;-66
2021/12/10 06:11:18;;;;;;;0.70;0.70;;;;;;;;;;5080081;28;20451;-66
2021/12/10 06:13:46;;;;;;;0.70;0.70;;;;;;;;;;5079886;28;20812;-66
2021/12/10 06:16:14;;;;;;;0.70;0.70;;;;;;;;;;5080252;28;20527;-65
2021/12/10 06:18:43;;;;;;;0.60;0.60;;;;;;;;;;5079267;28;20491;-65
2021/12/10 06:21:12;;;;;;;7.43;4.10;;;;;;;;;;5080172;28;20451;-65
2021/12/10 06:23:42;;;;;;;1.17;1.07;;;;;;;;;;5079776;28;20448;-65
2021/12/10 06:26:09;;;;;;;0.80;0.80;;;;;;;;;;5083183;28;20951;-65
2021/12/10 06:28:39;;;;;;;0.70;0.70;;;;;;;;;;5098543;28;20463;-65
2021/12/10 06:31:07;;;;;;;1.13;0.90;;;;;;;;;;5095268;28;20452;-65
2021/12/10 06:33:35;;;;;;;0.60;0.60;;;;;;;;;;5099773;28;20462;-65
2021/12/10 06:36:05;;;;;;;0.70;0.70;;;;;;;;;;5099808;28;20487;-68
2021/12/10 06:38:34;;;;;;;2.53;1.67;;;;;;;;;;5088198;28;20970;-66
2021/12/10 06:41:04;;;;;;;2.23;1.83;;;;;;;;;;5086446;28;20928;-66
2021/12/10 06:43:32;;;;;;;3.07;2.70;;;;;;;;;;5099486;28;20436;-66
2021/12/10 06:46:01;;;;;;;3.10;2.30;;;;;;;;;;5099749;28;20468;-67
2021/12/10 06:48:29;;;;;;;1.70;1.60;;;;;;;;;;5088771;28;20471;-66
2021/12/10 06:50:58;;;;;;;1.20;1.10;;;;;;;;;;5099491;28;20440;-66
2021/12/10 06:53:28;;;;;;;1.63;1.53;;;;;;;;;;5099504;28;20443;-66
2021/12/10 06:55:57;;;;;;;4.33;2.03;;;;;;;;;;5099518;28;20439;-66
2021/12/10 06:58:28;;;;;;;1.03;0.97;;;;;;;;;;5099540;28;20492;-66
2021/12/10 07:00:58;;;;;;;1.33;0.87;;;;;;;;;;5099470;28;20475;-66
2021/12/10 07:03:27;;;;;;;0.90;0.83;;;;;;;;;;5099224;28;20475;-66
2021/12/10 07:05:56;;;;;;;0.80;0.80;;;;;;;;;;5099634;28;20440;-66
2021/12/10 07:08:25;;;;;;;0.93;0.93;;;;;;;;;;5099563;28;20466;-66
2021/12/10 07:10:54;;;;;;;2.33;1.70;;;;;;;;;;5099336;28;20997;-66
2021/12/10 07:13:24;;;;;;;1.37;1.27;;;;;;;;;;5099226;28;21006;-66
2021/12/10 07:15:54;;;;;;;0.90;0.90;;;;;;;;;;5099019;28;20804;-66
2021/12/10 07:18:25;;;;;;;1.30;1.10;;;;;;;;;;5098624;28;20494;-66
2021/12/10 07:20:53;;;;;;;0.80;0.80;;;;;;;;;;5099235;28;20450;-66
2021/12/10 07:23:22;;;;;;;0.60;0.60;;;;;;;;;;5099036;28;20451;-66
2021/12/10 07:25:51;;;;;;;0.90;0.90;;;;;;;;;;5099159;28;20450;-66
2021/12/10 07:28:19;;;;;;;0.90;0.90;;;;;;;;;;5097595;28;20474;-66
2021/12/10 07:30:48;;;;;;;1.63;1.50;;;;;;;;;;5078673;28;20446;-66
2021/12/10 07:33:18;;;;;;;0.80;0.80;;;;;;;;;;5078389;28;20444;-66
2021/12/10 07:35:47;;;;;;;1.93;0.87;;;;;;;;;;5078470;28;20532;-66
2021/12/10 07:38:15;;;;;;;1.00;1.00;;;;;;;;;;5080162;28;20551;-66
2021/12/10 07:40:43;;;;;;;4.23;2.80;;;;;;;;;;5089248;28;20447;-66
2021/12/10 07:43:11;;;;;;;0.83;0.83;;;;;;;;;;5078392;28;20512;-66
2021/12/10 07:45:41;;;;;;;1.70;1.23;;;;;;;;;;5078602;28;20451;-66
2021/12/10 07:48:11;;;;;;;1.63;0.70;;;;;;;;;;5091406;28;20821;-66
2021/12/10 07:50:42;;;;;;;0.97;0.90;;;;;;;;;;5078182;28;20931;-66
2021/12/10 07:53:10;;;;;;;0.90;0.90;;;;;;;;;;5078109;28;20535;-66
2021/12/10 07:55:39;;;;;;;1.10;1.00;;;;;;;;;;5078456;28;20441;-66
2021/12/10 07:58:07;;;;;;;0.60;0.60;;;;;;;;;;5077762;28;20470;-66
2021/12/10 08:00:37;;;;;;;1.13;1.03;;;;;;;;;;5078328;28;20442;-66
2021/12/10 08:03:06;;;;;;;0.93;0.70;;;;;;;;;;5084658;28;20444;-66
2021/12/10 08:05:34;;;;;;;0.83;0.83;;;;;;;;;;5098136;28;20451;-66
2021/12/10 08:08:05;;;;;;;1.97;1.13;;;;;;;;;;5098215;28;21046;-66
2021/12/10 08:10:34;;;;;;;1.87;1.30;;;;;;;;;;5098413;28;20444;-66
2021/12/10 08:13:02;;;;;;;1.07;0.90;;;;;;;;;;5098343;28;20496;-66
2021/12/10 08:15:30;;;;;;;0.80;0.80;;;;;;;;;;5097543;28;20454;-66
2021/12/10 08:17:58;;;;;;;1.27;1.17;;;;;;;;;;5097876;28;20452;-66
2021/12/10 08:20:27;;;;;;;1.03;0.80;;;;;;;;;;5098110;28;20487;-66
2021/12/10 08:22:55;;;;;;;1.47;1.37;;;;;;;;;;5098526;28;20468;-66
2021/12/10 08:25:25;;;;;;;1.23;1.00;;;;;;;;;;5097970;28;20878;-66
2021/12/10 08:27:53;;;;;;;2.27;1.30;;;;;;;;;;5097975;28;20449;-66
2021/12/10 08:30:24;;;;;;;2.30;1.33;;;;;;;;;;5077637;28;20543;-66
2021/12/10 08:32:54;;;;;;;1.37;1.27;;;;;;;;;;5077335;28;20928;-66
2021/12/10 08:35:25;;;;;;;1.50;0.87;;;;;;;;;;5077893;28;20528;-67
2021/12/10 08:37:54;;;;;;;0.80;0.80;;;;;;;;;;5077579;28;20472;-66
2021/12/10 08:40:25;;;;;;;2.73;1.13;;;;;;;;;;5090455;28;20504;-66
2021/12/10 08:42:54;;;;;;;1.93;1.17;;;;;;;;;;5078125;28;20472;-66
2021/12/10 08:45:23;;;;;;;1.50;1.10;;;;;;;;;;5077599;28;20448;-67
2021/12/10 08:47:52;;;;;;;2.67;1.60;;;;;;;;;;5090543;28;20450;-66
2021/12/10 08:50:23;;;;;;;3.07;1.50;;;;;;;;;;5077781;28;20532;-68
2021/12/10 08:52:51;;;;;;;2.60;1.40;;;;;;;;;;5077738;28;20440;-66
2021/12/10 08:55:19;;;;;;;1.37;1.27;;;;;;;;;;5077409;28;20879;-66
2021/12/10 08:57:48;;;;;;;1.20;1.10;;;;;;;;;;5077203;28;20451;-66
2021/12/10 09:00:17;;;;;;;1.07;1.07;;;;;;;;;;5077336;28;20480;-66
2021/12/10 09:02:45;;;;;;;1.17;1.07;;;;;;;;;;5077284;28;20444;-66
2021/12/10 09:05:13;;;;;;;4.17;0.87;;;;;;;;;;5077459;28;20881;-66
2021/12/10 09:07:43;;;;;;;0.70;0.70;;;;;;;;;;5077006;28;20448;-66
2021/12/10 09:10:12;;;;;;;3.60;0.97;;;;;;;;;;5077298;28;20441;-66
2021/12/10 09:12:40;;;;;;;1.33;0.73;;;;;;;;;;5077052;28;20441;-66
2021/12/10 09:15:12;;;;;;;1.63;1.03;;;;;;;;;;5077009;28;20448;-66
2021/12/10 09:17:41;;;;;;;1.50;0.80;;;;;;;;;;5076770;28;20527;-66
2021/12/10 09:20:13;;;;;;;2.83;1.30;;;;;;;;;;5077183;28;20504;-66
2021/12/10 09:22:41;;;;;;;3.80;1.20;;;;;;;;;;5077153;28;20447;-66
2021/12/10 09:25:10;;;;;;;1.47;1.37;;;;;;;;;;5076809;28;20818;-66
2021/12/10 09:27:38;;;;;;;2.73;1.10;;;;;;;;;;5079930;28;20447;-66
2021/12/10 09:30:07;;;;;;;1.20;1.10;;;;;;;;;;5083486;28;20440;-66
2021/12/10 09:32:37;;;;;;;1.43;1.20;;;;;;;;;;5080500;28;20451;-66
2021/12/10 09:35:07;;;;;;;1.37;1.27;;;;;;;;;;5080747;28;20822;-66
2021/12/10 09:37:35;;;;;;;2.40;1.00;;;;;;;;;;5080740;28;20551;-66
2021/12/10 09:40:05;;;;;;;1.20;1.10;;;;;;;;;;5094020;28;20492;-67
2021/12/10 09:42:33;;;;;;;1.53;1.43;;;;;;;;;;5081016;28;20450;-66
2021/12/10 09:45:01;;;;;;;1.53;1.20;;;;;;;;;;5085742;28;20448;-66
2021/12/10 09:47:29;;;;;;;2.90;1.90;;;;;;;;;;5100353;28;20450;-66
2021/12/10 09:49:59;;;;;;;4.07;1.50;;;;;;;;;;5081092;28;20464;-66
2021/12/10 09:52:28;;;;;;;1.93;1.10;;;;;;;;;;5080671;28;20516;-66
2021/12/10 09:54:56;;;;;;;1.40;1.10;;;;;;;;;;5087305;28;20538;-66
2021/12/10 09:57:29;;;;;;;1.53;1.30;;;;;;;;;;5100648;28;20447;-66
2021/12/10 10:00:19;;;;;;;2.83;1.57;;;;;;;;;;5100419;28;20491;-66
2021/12/10 10:02:47;;;;;;;2.30;1.20;;;;;;;;;;5100611;28;20436;-66
2021/12/10 10:05:18;;;;;;;1.47;1.30;;;;;;;;;;5100909;28;20443;-66
2021/12/10 10:07:51;;;;;;;2.17;1.20;;;;;;;;;;5100500;28;20479;-66
2021/12/10 10:10:19;;;;;;;3.27;1.53;;;;;;;;;;5100414;28;20532;-66
2021/12/10 10:12:49;;;;;;;3.07;1.77;;;;;;;;;;5100433;28;20528;-66
2021/12/10 10:15:20;;;;;;;2.47;1.60;;;;;;;;;;5100376;28;20451;-66
2021/12/10 10:17:53;;;;;;;1.80;1.43;;;;;;;;;;5100127;28;20443;-66
2021/12/10 10:20:24;;;;;;;3.07;1.80;;;;;;;;;;5100310;28;20479;-66
2021/12/10 10:22:52;;;;;;;2.23;1.60;;;;;;;;;;5100410;28;20482;-66
2021/12/10 10:25:22;;;;;;;2.20;1.30;;;;;;;;;;5100062;28;20443;-66
2021/12/10 10:27:50;;;;;;;2.27;1.40;;;;;;;;;;5100304;28;20450;-66
2021/12/10 10:30:22;;;;;;;2.13;1.93;;;;;;;;;;5082079;28;20456;-67
2021/12/10 10:32:50;;;;;;;4.23;2.20;;;;;;;;;;5079577;28;20448;-67
2021/12/10 10:35:22;;;;;;;8.37;2.37;;;;;;;;;;5080019;28;20449;-66
2021/12/10 10:37:51;;;;;;;3.73;1.80;;;;;;;;;;5079042;28;20241;-66
2021/12/10 10:40:21;;;;;;;5.17;2.17;;;;;;;;;;5091940;28;20583;-66
2021/12/10 10:42:49;;;;;;;4.83;2.23;;;;;;;;;;5079472;28;20445;-66
2021/12/10 10:45:20;;;;;;;9.50;5.47;;;;;;;;;;5079513;28;20276;-66
2021/12/10 10:47:49;;;;;;;6.57;3.80;;;;;;;;;;5092910;28;20212;-66
2021/12/10 10:50:34;;;;;;;6.23;3.50;;;;;;;;;;5079101;28;20535;-66
2021/12/10 10:53:09;;;;;;;8.53;3.03;;;;;;;;;;5079494;28;20216;-66
2021/12/10 10:55:38;;;;;;;4.20;2.00;;;;;;;;;;5079154;28;20320;-65
2021/12/10 10:58:08;;;;;;;4.47;2.37;;;;;;;;;;5083789;28;20903;-66
2021/12/10 11:00:44;;;;;;;2.53;1.17;;;;;;;;;;5087625;28;20213;-65
2021/12/10 11:03:38;;;;;;;2.20;1.23;;;;;;;;;;5082587;28;20460;-65
2021/12/10 11:06:08;;;;;;;1.90;1.10;;;;;;;;;;5096485;28;20228;-65
2021/12/10 11:08:40;;;;;;;1.63;1.00;;;;;;;;;;5095627;28;20471;-65
2021/12/10 11:11:15;;;;;;;6.60;1.20;;;;;;;;;;5078961;28;20486;-65
2021/12/10 11:13:43;;;;;;;3.80;1.03;;;;;;;;;;5078663;28;20534;-65
2021/12/10 11:16:13;;;;;;;3.20;0.90;;;;;;;;;;5079092;28;20916;-65
2021/12/10 11:18:44;;;;;;;2.27;1.10;;;;;;;;;;5078212;28;20464;-65
2021/12/10 11:21:12;;;;;;;5.73;1.70;;;;;;;;;;5085378;28;20481;-65
2021/12/10 11:23:43;;;;;;;3.90;1.13;;;;;;;;;;5080385;28;20536;-65
2021/12/10 11:26:11;;;;;;;4.13;1.47;;;;;;;;;;5078946;28;20449;-66
2021/12/10 11:28:41;;;;;;;1.83;1.50;;;;;;;;;;5078661;28;20456;-65
2021/12/10 11:31:13;;;;;;;2.67;1.10;;;;;;;;;;5078921;28;20454;-65
2021/12/10 11:33:44;;;;;;;1.67;0.60;;;;;;;;;;5085528;28;20447;-65
2021/12/10 11:36:15;;;;;;;1.83;0.70;;;;;;;;;;5098648;28;20841;-65
2021/12/10 11:38:46;;;;;;;3.47;1.10;;;;;;;;;;5098620;28;20531;-65
2021/12/10 11:41:15;;;;;;;4.03;1.60;;;;;;;;;;5082076;28;20488;-65
2021/12/10 11:43:52;;;;;;;5.13;1.10;;;;;;;;;;5078536;28;20440;-66
2021/12/10 11:49:21;;;;;;;7.17;1.20;;;;;;;;;;5078499;28;20226;-65
2021/12/10 11:51:54;;;;;;;7.13;1.43;;;;;;;;;;5085838;28;20539;-65
2021/12/10 11:54:27;;;;;;;4.00;1.60;;;;;;;;;;5098136;28;20798;-65
2021/12/10 11:56:58;;;;;;;6.67;1.40;;;;;;;;;;5098144;28;20209;-66
2021/12/10 11:59:27;;;;;;;7.00;1.87;;;;;;;;;;5077921;28;20260;-65
2021/12/10 12:01:57;;;;;;;5.67;1.20;;;;;;;;;;5085803;28;20217;-66
2021/12/10 12:04:27;;;;;;;6.57;1.60;;;;;;;;;;5090780;28;20660;-66
2021/12/10 12:07:13;;;;;;;6.27;2.23;;;;;;;;;;5088940;28;20204;-66
2021/12/10 12:09:43;;;;;;;3.10;1.20;;;;;;;;;;5085024;28;20222;-65
2021/12/10 12:12:13;;;;;;;4.30;1.17;;;;;;;;;;5092881;28;20201;-66
2021/12/10 12:14:51;;;;;;;2.47;1.20;;;;;;;;;;5097907;28;20232;-66
2021/12/10 12:17:37;;;;;;;2.13;1.50;;;;;;;;;;5098146;28;20228;-66
2021/12/10 12:20:10;;;;;;;2.30;1.60;;;;;;;;;;5097099;28;20293;-64
2021/12/10 12:25:33;;;;;;;2.50;1.53;;;;;;;;;;5089369;28;20284;-64
2021/12/10 12:28:10;;;;;;;8.97;1.30;;;;;;;;;;5097694;28;20236;-64
2021/12/10 12:31:00;;;;;;;3.23;1.67;;;;;;;;;;5077225;28;20708;-64
2021/12/10 12:33:35;;;;;;;4.43;1.67;;;;;;;;;;5085020;28;20201;-64
2021/12/10 12:36:12;;;;;;;5.17;2.17;;;;;;;;;;5087530;28;20265;-64
2021/12/10 12:38:43;;;;;;;3.77;1.90;;;;;;;;;;5089976;28;20749;-65
2021/12/10 12:41:33;;;;;;;2.97;1.57;;;;;;;;;;5089347;28;20220;-64
2021/12/10 12:44:13;;;;;;;2.47;0.80;;;;;;;;;;5086946;28;20289;-65
2021/12/10 12:46:59;;;;;;;1.60;1.00;;;;;;;;;;5087336;28;20232;-65
2021/12/10 12:49:31;;;;;;;4.17;1.13;;;;;;;;;;5094644;28;20217;-65
2021/12/10 12:52:04;;;;;;;1.57;1.10;;;;;;;;;;5091924;28;20198;-67
2021/12/10 12:54:34;;;;;;;4.40;1.20;;;;;;;;;;5087504;28;20689;-66
2021/12/10 12:57:05;;;;;;;3.13;1.30;;;;;;;;;;5088391;28;20254;-66
2021/12/10 12:59:56;;;;;;;4.23;1.00;;;;;;;;;;5087376;28;20214;-65
2021/12/10 13:02:26;;;;;;;1.73;1.30;;;;;;;;;;5093271;28;20249;-66
2021/12/10 13:04:55;;;;;;;3.57;1.30;;;;;;;;;;5091371;28;20768;-65
2021/12/10 13:07:24;;;;;;;4.00;1.60;;;;;;;;;;5093052;28;20204;-66
2021/12/10 13:09:56;;;;;;;3.03;1.07;;;;;;;;;;5090727;28;20227;-66
2021/12/10 13:12:35;;;;;;;2.23;1.17;;;;;;;;;;5091602;28;20654;-65
2021/12/10 13:15:06;;;;;;;5.43;1.47;;;;;;;;;;5099141;28;20232;-66
2021/12/10 13:17:36;;;;;;;3.60;1.10;;;;;;;;;;5100789;28;20645;-66
2021/12/10 13:20:09;;;;;;;1.50;1.23;;;;;;;;;;5101102;28;20557;-66
2021/12/10 13:22:37;;;;;;;1.03;0.90;;;;;;;;;;5100822;28;20764;-67
2021/12/10 13:25:07;;;;;;;6.30;1.17;;;;;;;;;;5100869;28;20213;-67
2021/12/10 13:27:37;;;;;;;4.30;1.30;;;;;;;;;;5100516;28;20211;-67
2021/12/10 13:30:11;;;;;;;5.83;1.50;;;;;;;;;;5091582;28;20245;-67
2021/12/10 13:32:41;;;;;;;2.50;1.00;;;;;;;;;;5080340;28;20202;-67
2021/12/10 13:35:11;;;;;;;5.83;1.50;;;;;;;;;;5080606;28;20289;-66
2021/12/10 13:37:39;;;;;;;3.73;1.47;;;;;;;;;;5080279;28;20246;-66
2021/12/10 13:40:08;;;;;;;2.27;1.10;;;;;;;;;;5088245;28;20217;-66
2021/12/10 13:42:38;;;;;;;0.90;0.70;;;;;;;;;;5080087;28;20244;-66
2021/12/10 13:45:07;;;;;;;5.93;1.30;;;;;;;;;;5080405;28;20210;-66
2021/12/10 13:47:37;;;;;;;2.10;1.33;;;;;;;;;;5091048;28;20203;-66
2021/12/10 13:50:08;;;;;;;4.57;1.30;;;;;;;;;;5091665;28;20210;-66
2021/12/10 13:52:38;;;;;;;4.23;1.40;;;;;;;;;;5091412;28;20736;-65
2021/12/10 13:55:08;;;;;;;3.17;1.00;;;;;;;;;;5090772;28;20666;-66
2021/12/10 13:57:38;;;;;;;2.83;1.03;;;;;;;;;;5091242;28;20198;-66
2021/12/10 14:00:08;;;;;;;3.60;1.27;;;;;;;;;;5100131;28;20205;-66
2021/12/10 14:02:37;;;;;;;2.60;1.23;;;;;;;;;;5089527;28;20674;-66
2021/12/10 14:05:23;;;;;;;3.07;1.10;;;;;;;;;;5090226;28;20269;-66
2021/12/10 14:07:53;;;;;;;1.80;1.00;;;;;;;;;;5090771;28;20200;-66
2021/12/10 14:10:30;;;;;;;1.20;0.87;;;;;;;;;;5090465;28;20232;-66
2021/12/10 14:13:01;;;;;;;2.77;1.07;;;;;;;;;;5088568;28;20224;-66
2021/12/10 14:15:36;;;;;;;6.83;2.53;;;;;;;;;;5089488;28;20208;-65
2021/12/10 14:18:25;;;;;;;3.40;1.50;;;;;;;;;;5089739;28;20217;-66
2021/12/10 14:21:14;;;;;;;1.10;0.93;;;;;;;;;;5090359;28;20578;-68
2021/12/10 14:24:02;;;;;;;4.73;1.47;;;;;;;;;;5089373;28;20210;-67
2021/12/10 14:27:03;;;;;;;4.03;1.20;;;;;;;;;;5081280;28;20225;-67
2021/12/10 14:30:06;;;;;;;2.30;0.90;;;;;;;;;;5083800;28;20228;-66
2021/12/10 14:32:37;;;;;;;1.83;0.70;;;;;;;;;;5074223;28;20297;-67
2021/12/10 14:35:09;;;;;;;3.70;1.30;;;;;;;;;;5100019;28;20288;-67
2021/12/10 14:37:47;;;;;;;1.50;0.90;;;;;;;;;;5099639;28;20269;-67
2021/12/10 14:40:47;;;;;;;2.60;1.13;;;;;;;;;;5088563;28;20199;-66
2021/12/10 14:43:20;;;;;;;5.10;3.23;;;;;;;;;;5089048;28;20221;-67
2021/12/10 14:46:09;;;;;;;7.47;1.37;;;;;;;;;;5089728;28;20257;-67
2021/12/10 14:48:41;;;;;;;2.90;1.10;;;;;;;;;;5092038;28;20256;-67
2021/12/10 14:51:29;;;;;;;1.10;1.00;;;;;;;;;;5088723;28;20202;-67
2021/12/10 14:54:18;;;;;;;2.27;1.10;;;;;;;;;;5089098;28;20202;-67
2021/12/10 14:57:07;;;;;;;3.13;1.30;;;;;;;;;;5088742;28;20209;-67
2021/12/10 14:59:55;;;;;;;0.83;0.73;;;;;;;;;;5090437;28;20224;-67
2021/12/10 15:02:43;;;;;;;2.27;1.00;;;;;;;;;;5088500;28;20218;-66
2021/12/10 15:05:35;;;;;;;4.87;1.17;;;;;;;;;;5088304;28;20217;-67
2021/12/10 15:08:36;;;;;;;5.40;1.40;;;;;;;;;;5089247;28;20234;-67
2021/12/10 15:11:26;;;;;;;3.13;1.00;;;;;;;;;;5089664;28;20233;-67
2021/12/10 15:14:15;;;;;;;3.17;1.20;;;;;;;;;;5088770;28;20201;-67
2021/12/10 15:16:50;;;;;;;2.63;1.13;;;;;;;;;;5088612;28;20193;-66
2021/12/10 15:19:25;;;;;;;4.87;1.40;;;;;;;;;;5092696;28;20629;-67